Time;durP1;ratioP1;P1;durP2;ratioP2;P2;SDS_P1;SDS_P2;PMS_P1;PMS_P2;Temp;Humidity;BMP_temperature;BMP_pressure;BME280_temperature;BME280_humidity;BME280_pressure;Samples;Min_cycle;Max_cycle;Signal;HPM_P1;HPM_P2
2023/10/08 00:02:26;;;;;;;7.45;4.53;;;16.20;99.90;;;;;;4974980;28;20029;-50
2023/10/08 00:04:55;;;;;;;7.15;4.55;;;16.20;99.90;;;;;;4974573;28;20035;-48
2023/10/08 00:07:24;;;;;;;10.88;5.60;;;16.20;99.90;;;;;;4973598;28;20053;-52
2023/10/08 00:09:53;;;;;;;8.38;5.40;;;16.10;99.90;;;;;;4974683;28;20023;-45
2023/10/08 00:12:19;;;;;;;13.35;5.95;;;16.10;99.90;;;;;;4974654;28;20050;-49
2023/10/08 00:14:49;;;;;;;13.45;5.90;;;16.10;99.90;;;;;;4973546;28;20041;-49
2023/10/08 00:17:18;;;;;;;7.55;4.68;;;16.20;99.90;;;;;;4973179;28;20022;-48
2023/10/08 00:19:44;;;;;;;8.32;4.63;;;16.20;99.90;;;;;;4974604;28;20505;-47
2023/10/08 00:22:13;;;;;;;13.65;4.88;;;16.20;99.90;;;;;;4974537;28;20015;-49
2023/10/08 00:24:41;;;;;;;11.95;5.93;;;16.10;99.90;;;;;;4974609;28;20110;-49
2023/10/08 00:27:08;;;;;;;8.75;5.05;;;16.20;99.90;;;;;;4974217;28;20035;-48
2023/10/08 00:29:34;;;;;;;7.60;5.10;;;16.20;99.90;;;;;;4974385;28;20089;-47
2023/10/08 00:31:59;;;;;;;8.45;5.10;;;16.20;99.90;;;;;;4974336;28;20023;-50
2023/10/08 00:34:27;;;;;;;10.43;5.07;;;16.20;99.90;;;;;;4974097;28;20380;-46
2023/10/08 00:36:53;;;;;;;9.90;5.18;;;16.20;99.90;;;;;;4973978;28;20070;-52
2023/10/08 00:39:26;;;;;;;10.48;5.65;;;16.10;99.90;;;;;;4974244;28;20116;-46
2023/10/08 00:41:58;;;;;;;8.18;5.35;;;16.00;99.90;;;;;;4973915;28;20029;-50
2023/10/08 00:44:29;;;;;;;18.00;5.82;;;16.00;99.90;;;;;;4974069;28;20203;-46
2023/10/08 00:46:56;;;;;;;7.35;5.10;;;16.10;99.90;;;;;;4973780;28;20027;-47
2023/10/08 00:57:42;;;;;;;8.15;4.65;;;16.00;99.90;;;;;;4984702;28;20038;-48
2023/10/08 01:00:17;;;;;;;26.30;13.63;;;16.00;99.90;;;;;;4993408;28;20106;-47
2023/10/08 01:02:46;;;;;;;75.18;48.53;;;16.00;99.90;;;;;;4993476;28;20030;-48
2023/10/08 01:05:14;;;;;;;9.50;5.47;;;16.10;99.90;;;;;;4992998;28;20030;-48
2023/10/08 01:07:44;;;;;;;7.57;5.20;;;16.00;99.90;;;;;;4993015;28;20498;-50
2023/10/08 01:10:13;;;;;;;12.95;5.13;;;16.00;99.90;;;;;;4993421;28;20029;-47
2023/10/08 01:12:49;;;;;;;10.80;4.95;;;16.00;99.90;;;;;;4992991;28;20019;-49
2023/10/08 01:15:23;;;;;;;10.00;4.50;;;16.00;99.90;;;;;;4992663;28;20058;-48
2023/10/08 01:17:58;;;;;;;7.97;4.90;;;16.00;99.90;;;;;;4993121;28;20105;-45
2023/10/08 01:23:13;;;;;;;6.95;4.88;;;16.00;99.90;;;;;;4993197;28;20034;-52
2023/10/08 01:25:43;;;;;;;8.23;5.18;;;16.00;99.90;;;;;;4992393;28;20033;-47
2023/10/08 01:28:14;;;;;;;7.82;4.75;;;16.00;99.90;;;;;;4991571;28;20081;-47
2023/10/08 01:30:47;;;;;;;7.30;5.07;;;16.00;99.90;;;;;;4992834;28;20041;-47
2023/10/08 01:33:15;;;;;;;9.52;5.10;;;16.00;99.90;;;;;;4992824;28;20029;-47
2023/10/08 01:35:42;;;;;;;8.73;4.80;;;16.00;99.90;;;;;;4992832;28;20034;-49
2023/10/08 01:38:13;;;;;;;6.78;4.72;;;15.90;99.90;;;;;;4992893;28;20498;-47
2023/10/08 01:40:39;;;;;;;9.50;5.03;;;15.90;99.90;;;;;;4992290;28;20022;-46
2023/10/08 01:43:05;;;;;;;7.80;4.32;;;15.90;99.90;;;;;;4992701;28;20054;-46
2023/10/08 01:45:32;;;;;;;10.93;4.97;;;15.90;99.90;;;;;;4992281;28;20069;-48
2023/10/08 01:47:58;;;;;;;6.75;5.00;;;15.90;99.90;;;;;;4992529;28;20027;-46
2023/10/08 01:50:29;;;;;;;13.13;4.75;;;15.90;99.90;;;;;;4991512;28;20394;-46
2023/10/08 01:52:55;;;;;;;9.68;4.63;;;15.80;99.90;;;;;;4992119;28;20430;-49
2023/10/08 01:55:22;;;;;;;10.43;4.53;;;15.80;99.90;;;;;;4992119;28;20030;-48
2023/10/08 01:57:51;;;;;;;11.10;4.82;;;15.80;99.90;;;;;;4992465;28;20014;-46
2023/10/08 02:00:19;;;;;;;13.35;5.28;;;15.80;99.90;;;;;;4992439;28;20042;-48
2023/10/08 02:02:51;;;;;;;10.50;5.57;;;15.80;99.90;;;;;;4992227;28;20022;-46
2023/10/08 02:05:18;;;;;;;8.98;5.13;;;15.90;99.90;;;;;;4992128;28;20030;-49
2023/10/08 02:07:48;;;;;;;12.15;5.63;;;15.80;99.90;;;;;;4992227;28;20037;-49
2023/10/08 02:10:16;;;;;;;8.10;4.97;;;15.80;99.90;;;;;;4992307;28;20375;-49
2023/10/08 02:12:42;;;;;;;10.00;4.90;;;15.80;99.90;;;;;;4992338;28;20022;-49
2023/10/08 02:15:08;;;;;;;9.75;5.63;;;15.80;99.90;;;;;;4991857;28;20038;-48
2023/10/08 02:17:34;;;;;;;16.40;5.60;;;15.80;99.90;;;;;;4992198;28;20026;-48
2023/10/08 02:20:00;;;;;;;12.40;4.55;;;15.70;99.90;;;;;;4992132;28;20071;-49
2023/10/08 02:22:26;;;;;;;10.02;5.40;;;15.70;99.90;;;;;;4992000;28;20445;-47
2023/10/08 02:24:53;;;;;;;17.23;5.07;;;15.70;99.90;;;;;;4992294;28;20027;-47
2023/10/08 02:27:18;;;;;;;6.97;4.82;;;15.70;99.90;;;;;;4992357;28;20026;-46
2023/10/08 02:29:44;;;;;;;6.50;4.82;;;15.80;99.90;;;;;;4992552;28;20027;-47
2023/10/08 02:32:10;;;;;;;10.70;5.22;;;15.80;99.90;;;;;;4992247;28;20026;-47
2023/10/08 02:34:35;;;;;;;13.35;5.63;;;15.70;99.90;;;;;;4992082;28;20114;-48
2023/10/08 02:37:03;;;;;;;8.93;5.38;;;15.70;99.90;;;;;;4993050;28;20031;-49
2023/10/08 02:39:30;;;;;;;7.45;4.55;;;15.80;99.90;;;;;;4995995;28;20061;-51
2023/10/08 02:41:58;;;;;;;6.32;4.43;;;15.70;99.90;;;;;;4995697;28;20117;-49
2023/10/08 02:44:24;;;;;;;9.20;5.35;;;15.70;99.90;;;;;;4995675;28;20026;-48
2023/10/08 02:46:51;;;;;;;10.32;5.13;;;15.60;99.90;;;;;;4995453;28;20029;-49
2023/10/08 02:49:31;;;;;;;10.57;6.07;;;15.70;99.90;;;;;;4995761;28;20053;-51
2023/10/08 02:51:58;;;;;;;9.05;5.55;;;15.70;99.90;;;;;;4995680;28;20038;-46
2023/10/08 02:54:31;;;;;;;8.63;5.38;;;15.60;99.90;;;;;;4994431;28;20026;-48
2023/10/08 02:57:03;;;;;;;10.00;5.45;;;15.60;99.90;;;;;;4994186;28;20026;-50
2023/10/08 02:59:42;;;;;;;9.15;4.80;;;15.60;99.90;;;;;;4994314;28;20407;-49
2023/10/08 03:02:18;;;;;;;9.77;5.00;;;15.50;99.90;;;;;;4994599;28;20058;-48
2023/10/08 03:04:45;;;;;;;10.27;5.03;;;15.50;99.90;;;;;;4994180;28;20393;-46
2023/10/08 03:07:21;;;;;;;13.57;5.03;;;15.50;99.90;;;;;;4994253;28;20085;-46
2023/10/08 03:09:49;;;;;;;8.23;5.05;;;15.50;99.90;;;;;;4994160;28;20022;-46
2023/10/08 03:12:16;;;;;;;9.82;5.10;;;15.50;99.90;;;;;;4994321;28;20113;-43
2023/10/08 03:14:49;;;;;;;7.35;4.97;;;15.40;99.90;;;;;;4994213;28;20030;-49
2023/10/08 03:17:19;;;;;;;13.52;5.15;;;15.40;99.90;;;;;;4994066;28;20033;-51
2023/10/08 03:19:46;;;;;;;10.98;4.95;;;15.40;99.90;;;;;;4994085;28;20068;-47
2023/10/08 03:22:12;;;;;;;7.72;4.30;;;15.40;99.90;;;;;;4994218;28;20034;-45
2023/10/08 03:24:38;;;;;;;11.38;5.60;;;15.40;99.90;;;;;;4994113;28;20406;-48
2023/10/08 03:27:41;;;;;;;7.50;4.80;;;15.40;99.90;;;;;;4994124;28;20027;-47
2023/10/08 03:29:58;;;;;;;10.85;4.80;;;15.40;99.90;;;;;;4994011;28;20041;-48
2023/10/08 03:32:26;;;;;;;9.02;5.95;;;15.30;99.90;;;;;;4993710;28;20026;-48
2023/10/08 03:34:54;;;;;;;10.32;5.40;;;15.40;99.90;;;;;;4993263;28;20037;-46
2023/10/08 03:37:29;;;;;;;9.18;4.82;;;15.30;99.90;;;;;;4993794;28;20434;-46
2023/10/08 03:40:07;;;;;;;9.82;4.75;;;15.40;99.90;;;;;;4993917;28;20086;-46
2023/10/08 03:42:40;;;;;;;17.05;4.75;;;15.30;99.90;;;;;;4993486;28;20027;-46
2023/10/08 03:45:10;;;;;;;9.02;5.60;;;15.30;99.90;;;;;;4993304;28;20027;-47
2023/10/08 03:47:39;;;;;;;10.02;5.47;;;15.30;99.90;;;;;;4993468;28;20513;-46
2023/10/08 03:50:06;;;;;;;8.75;4.68;;;15.30;99.90;;;;;;4992286;28;20034;-49
2023/10/08 03:52:36;;;;;;;8.45;5.45;;;15.30;99.90;;;;;;4993643;28;20057;-44
2023/10/08 03:57:58;;;;;;;8.68;5.22;;;15.30;99.90;;;;;;4993950;28;20041;-46
2023/10/08 04:00:31;;;;;;;13.23;5.50;;;15.20;99.90;;;;;;4994667;28;20498;-47
2023/10/08 04:03:07;;;;;;;12.57;5.85;;;15.20;99.90;;;;;;4994768;28;20047;-49
2023/10/08 04:05:59;;;;;;;11.07;4.82;;;15.20;99.90;;;;;;4997807;28;20030;-52
2023/10/08 04:08:42;;;;;;;11.25;4.90;;;15.10;99.90;;;;;;4999630;28;20022;-51
2023/10/08 04:11:32;;;;;;;7.53;4.90;;;15.10;99.90;;;;;;5009000;28;20026;-49
2023/10/08 04:14:01;;;;;;;8.23;5.18;;;15.10;99.90;;;;;;5011320;28;20030;-51
2023/10/08 04:16:27;;;;;;;10.13;6.05;;;15.10;99.90;;;;;;4997345;28;20030;-47
2023/10/08 04:18:56;;;;;;;7.97;5.00;;;15.10;99.90;;;;;;4994358;28;20202;-47
2023/10/08 04:21:27;;;;;;;12.95;4.95;;;15.10;99.90;;;;;;4992900;28;20018;-48
2023/10/08 04:23:53;;;;;;;8.30;5.07;;;15.10;99.90;;;;;;4994434;28;20046;-46
2023/10/08 04:26:23;;;;;;;9.75;4.90;;;15.10;99.90;;;;;;4993726;28;20209;-48
2023/10/08 04:28:55;;;;;;;12.75;4.97;;;15.10;99.90;;;;;;4993890;28;20030;-46
2023/10/08 04:31:24;;;;;;;11.57;5.55;;;15.20;99.90;;;;;;4993949;28;20041;-47
2023/10/08 04:33:50;;;;;;;8.60;5.38;;;15.20;99.90;;;;;;4993678;28;20046;-51
2023/10/08 04:36:19;;;;;;;11.45;5.55;;;15.20;99.90;;;;;;4993536;28;20557;-48
2023/10/08 04:38:47;;;;;;;8.95;5.10;;;15.20;99.90;;;;;;4993689;28;20030;-46
2023/10/08 04:41:17;;;;;;;12.18;5.45;;;15.20;99.90;;;;;;4993393;28;20022;-48
2023/10/08 04:43:42;;;;;;;10.48;5.18;;;15.20;99.90;;;;;;4993379;28;20026;-52
2023/10/08 04:48:52;;;;;;;8.75;5.60;;;15.20;99.90;;;;;;4993811;28;20161;-50
2023/10/08 04:51:21;;;;;;;7.40;4.85;;;15.20;99.90;;;;;;4993432;28;20051;-46
2023/10/08 04:53:47;;;;;;;9.75;5.88;;;15.20;99.90;;;;;;4993096;28;20433;-47
2023/10/08 04:56:16;;;;;;;9.30;4.88;;;15.20;99.90;;;;;;4993074;28;20113;-49
2023/10/08 04:58:46;;;;;;;9.63;5.00;;;15.10;99.90;;;;;;4993376;28;20077;-48
2023/10/08 05:01:20;;;;;;;12.55;4.50;;;15.10;99.90;;;;;;4992826;28;20046;-46
2023/10/08 05:08:59;;;;;;;10.40;4.88;;;15.20;99.90;;;;;;4993391;28;20026;-47
2023/10/08 05:11:36;;;;;;;7.93;5.18;;;15.20;99.90;;;;;;4993071;28;20101;-46
2023/10/08 05:14:16;;;;;;;11.35;5.50;;;15.20;99.90;;;;;;4993117;28;20032;-48
2023/10/08 05:17:00;;;;;;;8.70;5.35;;;15.20;99.90;;;;;;4992901;28;20106;-49
2023/10/08 05:33:23;;;;;;;9.25;4.90;;;14.90;99.90;;;;;;4991234;28;20072;-48
2023/10/08 05:35:49;;;;;;;10.43;5.88;;;14.90;99.90;;;;;;4992497;28;20106;-48
2023/10/08 05:38:23;;;;;;;10.93;4.55;;;14.90;99.90;;;;;;4992974;28;20057;-46
2023/10/08 05:49:03;;;;;;;8.40;5.07;;;14.70;99.90;;;;;;4992522;28;20030;-49
2023/10/08 06:07:48;;;;;;;6.60;5.10;;;14.80;99.90;;;;;;4993376;28;20027;-49
2023/10/08 06:13:15;;;;;;;12.30;5.63;;;14.80;99.90;;;;;;4991852;28;20478;-46
2023/10/08 06:16:05;;;;;;;6.50;4.70;;;14.70;99.90;;;;;;4992205;28;20033;-46
2023/10/08 06:18:32;;;;;;;8.73;5.88;;;14.80;99.90;;;;;;4992459;28;20026;-47
2023/10/08 06:21:07;;;;;;;8.65;4.80;;;14.70;99.90;;;;;;4992383;28;20478;-50
2023/10/08 06:23:35;;;;;;;9.90;5.22;;;14.70;99.90;;;;;;4992171;28;20038;-46
2023/10/08 06:26:21;;;;;;;11.07;5.40;;;14.80;99.90;;;;;;4992016;28;20141;-46
2023/10/08 06:28:46;;;;;;;13.05;5.20;;;14.80;99.90;;;;;;4992217;28;20023;-46
2023/10/08 06:31:13;;;;;;;8.52;5.18;;;14.90;99.90;;;;;;4992059;28;20026;-46
2023/10/08 06:33:40;;;;;;;8.23;4.70;;;15.00;99.90;;;;;;4991948;28;20065;-46
2023/10/08 06:36:13;;;;;;;7.07;4.30;;;15.10;99.90;;;;;;4991858;28;20022;-45
2023/10/08 06:38:43;;;;;;;8.63;4.30;;;15.10;99.90;;;;;;4992100;28;20031;-46
2023/10/08 06:43:45;;;;;;;11.02;5.75;;;15.30;99.90;;;;;;4992184;28;20030;-48
2023/10/08 06:46:12;;;;;;;9.48;5.15;;;15.40;99.90;;;;;;4991752;28;20118;-47
2023/10/08 06:48:42;;;;;;;12.50;6.88;;;15.50;99.90;;;;;;4992117;28;20434;-50
2023/10/08 06:51:12;;;;;;;8.20;4.78;;;15.40;99.90;;;;;;4991989;28;20026;-48
2023/10/08 06:53:39;;;;;;;9.60;5.07;;;15.50;99.90;;;;;;4992177;28;20035;-48
2023/10/08 06:56:05;;;;;;;11.25;5.75;;;15.50;99.90;;;;;;4990204;28;20069;-44
2023/10/08 06:58:34;;;;;;;11.43;5.47;;;15.40;99.90;;;;;;4991964;28;20514;-47
2023/10/08 07:01:04;;;;;;;7.97;5.05;;;15.40;99.90;;;;;;4992625;28;20026;-48
2023/10/08 07:03:31;;;;;;;16.40;5.43;;;15.40;99.90;;;;;;4991504;28;20097;-46
2023/10/08 07:06:00;;;;;;;8.38;5.10;;;15.30;99.90;;;;;;4990416;28;20038;-47
2023/10/08 07:08:33;;;;;;;7.75;4.82;;;15.30;99.90;;;;;;4991942;28;20026;-47
2023/10/08 07:11:11;;;;;;;9.88;5.07;;;15.30;99.90;;;;;;4991639;28;20568;-47
2023/10/08 07:13:39;;;;;;;9.93;5.50;;;15.40;99.90;;;;;;4991844;28;20038;-49
2023/10/08 07:16:10;;;;;;;12.57;5.63;;;15.50;99.90;;;;;;4991485;28;20033;-50
2023/10/08 07:18:39;;;;;;;9.38;5.57;;;15.50;99.90;;;;;;4992003;28;20030;-46
2023/10/08 07:21:14;;;;;;;11.63;5.20;;;15.60;99.90;;;;;;4991582;28;20379;-46
2023/10/08 07:23:59;;;;;;;10.57;5.35;;;15.70;99.90;;;;;;4994011;28;20058;-46
2023/10/08 07:26:39;;;;;;;11.27;4.95;;;15.80;99.90;;;;;;4994703;28;20033;-46
2023/10/08 07:29:09;;;;;;;11.10;6.15;;;15.90;99.90;;;;;;4995294;28;20045;-46
2023/10/08 07:31:48;;;;;;;11.82;5.75;;;16.00;99.90;;;;;;4995007;28;20081;-50
2023/10/08 07:34:18;;;;;;;11.05;4.30;;;16.00;99.90;;;;;;4995019;28;20030;-46
2023/10/08 07:36:55;;;;;;;9.00;5.28;;;16.10;99.90;;;;;;4995131;28;20074;-49
2023/10/08 07:39:33;;;;;;;12.93;5.55;;;16.10;99.90;;;;;;4995427;28;20050;-46
2023/10/08 07:42:05;;;;;;;9.80;4.47;;;16.20;99.90;;;;;;4993472;28;20022;-50
2023/10/08 07:44:31;;;;;;;12.93;5.88;;;16.10;99.90;;;;;;4994909;28;20085;-51
2023/10/08 07:46:57;;;;;;;9.75;6.03;;;16.00;99.90;;;;;;4994983;28;20027;-46
2023/10/08 07:49:25;;;;;;;10.20;5.63;;;16.10;99.90;;;;;;4994738;28;20019;-50
2023/10/08 07:51:51;;;;;;;10.57;6.25;;;16.10;99.90;;;;;;4994737;28;20026;-49
2023/10/08 07:54:22;;;;;;;11.10;5.55;;;16.10;99.90;;;;;;4994305;28;20072;-46
2023/10/08 07:56:48;;;;;;;9.93;6.32;;;16.10;99.90;;;;;;4994291;28;20027;-48
2023/10/08 07:59:16;;;;;;;8.15;4.95;;;16.10;99.90;;;;;;4994728;28;20030;-48
2023/10/08 08:01:44;;;;;;;12.15;5.20;;;16.10;99.90;;;;;;4994852;28;20018;-49
2023/10/08 08:04:14;;;;;;;13.40;4.82;;;16.10;99.90;;;;;;4994477;28;20022;-51
2023/10/08 08:06:49;;;;;;;11.93;6.05;;;16.20;99.90;;;;;;4994270;28;20033;-46
2023/10/08 08:09:19;;;;;;;9.30;4.68;;;16.30;99.90;;;;;;4994513;28;20097;-47
2023/10/08 08:11:48;;;;;;;15.40;4.97;;;16.30;99.90;;;;;;4994139;28;20073;-48
2023/10/08 08:14:16;;;;;;;9.02;4.97;;;16.30;99.90;;;;;;4993934;28;20394;-48
2023/10/08 08:16:47;;;;;;;10.43;5.82;;;16.40;99.90;;;;;;4993969;28;20022;-49
2023/10/08 08:19:15;;;;;;;7.32;5.05;;;16.40;99.90;;;;;;4994206;28;20015;-47
2023/10/08 08:21:45;;;;;;;10.55;5.60;;;16.50;99.90;;;;;;4994095;28;20379;-46
2023/10/08 08:24:14;;;;;;;10.68;5.53;;;16.50;99.90;;;;;;4994140;28;20022;-45
2023/10/08 08:26:44;;;;;;;15.07;4.80;;;16.60;99.90;;;;;;4993927;28;20046;-45
2023/10/08 08:29:15;;;;;;;12.15;5.18;;;16.70;99.90;;;;;;4994104;28;20528;-46
2023/10/08 08:31:46;;;;;;;13.45;5.55;;;16.70;99.90;;;;;;4994093;28;20026;-47
2023/10/08 08:34:17;;;;;;;10.15;5.13;;;16.70;99.90;;;;;;4993127;28;20042;-48
2023/10/08 08:36:46;;;;;;;9.13;5.15;;;16.90;99.90;;;;;;4993591;28;20433;-48
2023/10/08 08:39:28;;;;;;;12.57;4.75;;;16.90;99.90;;;;;;4993920;28;20023;-46
2023/10/08 08:42:04;;;;;;;14.00;5.60;;;17.00;99.90;;;;;;4993608;28;20030;-44
2023/10/08 08:44:31;;;;;;;11.02;4.88;;;17.00;99.90;;;;;;4993888;28;20030;-46
2023/10/08 08:47:04;;;;;;;8.32;4.60;;;17.10;99.90;;;;;;4993065;28;20046;-47
2023/10/08 08:49:33;;;;;;;10.20;4.85;;;17.10;99.90;;;;;;4993910;28;20027;-47
2023/10/08 08:52:00;;;;;;;13.38;8.27;;;17.10;99.90;;;;;;4993418;28;20026;-47
2023/10/08 08:54:30;;;;;;;7.85;5.05;;;17.10;99.90;;;;;;4993071;28;20039;-45
2023/10/08 08:56:57;;;;;;;14.73;7.22;;;17.10;99.90;;;;;;4993221;28;20465;-47
2023/10/08 08:59:24;;;;;;;11.60;5.18;;;17.10;99.90;;;;;;4993297;28;20026;-48
2023/10/08 09:01:50;;;;;;;10.73;6.13;;;17.10;99.90;;;;;;4993286;28;20359;-52
2023/10/08 09:04:17;;;;;;;10.75;4.80;;;17.20;99.90;;;;;;4993256;28;20023;-49
2023/10/08 09:06:44;;;;;;;8.25;4.53;;;17.20;99.90;;;;;;4993047;28;20023;-46
2023/10/08 09:09:22;;;;;;;7.63;4.45;;;17.30;99.90;;;;;;4993463;28;20030;-48
2023/10/08 09:11:52;;;;;;;10.40;4.50;;;17.50;99.90;;;;;;4993210;28;20030;-47
2023/10/08 09:14:22;;;;;;;9.45;4.18;;;17.60;99.90;;;;;;4992861;28;20018;-50
2023/10/08 09:16:49;;;;;;;11.40;4.72;;;17.90;99.90;;;;;;4993081;28;20301;-46
2023/10/08 09:19:23;;;;;;;6.65;4.88;;;18.10;99.90;;;;;;4993403;28;20100;-46
2023/10/08 09:22:14;;;;;;;12.13;4.85;;;18.20;99.90;;;;;;4993086;28;20490;-46
2023/10/08 09:24:41;;;;;;;7.03;4.60;;;18.40;99.90;;;;;;4992947;28;20109;-47
2023/10/08 09:27:08;;;;;;;6.70;3.65;;;18.50;99.90;;;;;;4993000;28;20027;-48
2023/10/08 09:29:40;;;;;;;10.15;5.00;;;18.60;99.90;;;;;;4993079;28;20113;-49
2023/10/08 09:32:09;;;;;;;13.70;4.97;;;18.70;99.90;;;;;;4993168;28;20022;-50
2023/10/08 09:34:36;;;;;;;11.35;5.18;;;18.70;99.90;;;;;;4992598;28;20085;-50
2023/10/08 09:37:02;;;;;;;6.78;4.18;;;18.80;99.90;;;;;;4992475;28;20031;-48
2023/10/08 09:39:30;;;;;;;14.25;5.22;;;18.80;99.90;;;;;;4992652;28;20038;-47
2023/10/08 09:41:57;;;;;;;9.23;4.32;;;19.00;99.90;;;;;;4990610;28;20057;-47
2023/10/08 09:44:24;;;;;;;8.23;3.70;;;19.00;99.90;;;;;;4989792;28;20042;-48
2023/10/08 09:47:02;;;;;;;8.68;4.45;;;19.20;99.90;;;;;;4990746;28;20022;-49
2023/10/08 09:49:32;;;;;;;8.07;4.30;;;19.40;99.90;;;;;;4992107;28;20471;-52
2023/10/08 09:52:06;;;;;;;18.50;4.97;;;19.50;99.90;;;;;;4991979;28;20022;-50
2023/10/08 09:54:41;;;;;;;5.30;3.80;;;19.60;99.90;;;;;;4992223;28;20446;-44
2023/10/08 09:57:07;;;;;;;9.68;4.40;;;19.60;99.90;;;;;;4992418;28;20454;-49
2023/10/08 09:59:34;;;;;;;7.70;4.93;;;19.60;99.90;;;;;;4992418;28;20061;-46
2023/10/08 10:02:02;;;;;;;8.57;4.03;;;19.50;99.90;;;;;;4992487;28;20038;-45
2023/10/08 10:04:31;;;;;;;10.63;4.50;;;19.40;99.90;;;;;;4992237;28;20050;-46
2023/10/08 10:07:00;;;;;;;9.90;5.55;;;19.30;99.90;;;;;;4990859;28;20022;-46
2023/10/08 10:09:26;;;;;;;7.32;4.22;;;19.20;99.90;;;;;;4992635;28;20023;-50
2023/10/08 10:11:54;;;;;;;23.88;13.18;;;19.10;99.90;;;;;;4992673;28;20030;-48
2023/10/08 10:14:24;;;;;;;124.95;82.72;;;19.10;99.90;;;;;;4991117;28;20031;-48
2023/10/08 10:17:20;;;;;;;10.95;6.07;;;19.10;99.90;;;;;;4992041;28;20045;-46
2023/10/08 10:19:55;;;;;;;;;;;19.20;99.90;;;;;;4992106;28;20086;-47
2023/10/08 10:22:33;;;;;;;7.57;4.13;;;19.30;99.90;;;;;;4991647;28;20320;-46
2023/10/08 10:25:20;;;;;;;10.15;4.22;;;19.20;99.90;;;;;;4991792;28;20030;-47
2023/10/08 10:27:58;;;;;;;7.35;4.25;;;19.30;99.90;;;;;;4992509;28;20136;-47
2023/10/08 10:30:27;;;;;;;13.90;4.28;;;19.40;99.90;;;;;;4992095;28;20039;-46
2023/10/08 10:32:53;;;;;;;9.00;4.00;;;19.50;99.90;;;;;;4991909;28;20098;-51
2023/10/08 10:35:19;;;;;;;6.20;4.13;;;19.70;99.90;;;;;;4991445;28;20030;-52
2023/10/08 10:37:52;;;;;;;6.65;3.80;;;19.80;99.90;;;;;;4991916;28;20070;-49
2023/10/08 10:40:39;;;;;;;6.80;4.22;;;20.00;99.90;;;;;;4991991;28;20386;-48
2023/10/08 10:43:06;;;;;;;6.57;3.72;;;20.10;99.90;;;;;;4991907;28;20126;-50
2023/10/08 10:45:44;;;;;;;11.13;4.65;;;20.20;99.90;;;;;;4991665;28;20514;-48
2023/10/08 10:48:21;;;;;;;6.90;3.83;;;20.40;99.90;;;;;;4991918;28;20472;-53
2023/10/08 10:53:48;;;;;;;8.77;4.15;;;20.60;99.90;;;;;;4991690;28;20383;-47
2023/10/08 10:56:18;;;;;;;7.43;4.15;;;20.70;99.90;;;;;;4992257;28;20030;-49
2023/10/08 10:58:47;;;;;;;7.05;4.13;;;21.00;99.90;;;;;;4994289;28;20021;-45
2023/10/08 11:01:25;;;;;;;7.70;4.65;;;21.10;99.90;;;;;;4995588;28;20020;-50
2023/10/08 11:03:52;;;;;;;11.63;4.53;;;21.10;99.90;;;;;;4995400;28;20027;-50
2023/10/08 11:06:22;;;;;;;7.47;4.57;;;21.20;99.90;;;;;;4995339;28;20040;-44
2023/10/08 11:08:50;;;;;;;9.70;4.28;;;21.30;99.90;;;;;;4995654;28;20523;-48
2023/10/08 11:11:17;;;;;;;9.88;4.13;;;21.40;99.90;;;;;;4995671;28;20028;-48
2023/10/08 11:13:46;;;;;;;7.35;4.18;;;21.60;99.90;;;;;;4995139;28;20030;-46
2023/10/08 11:16:15;;;;;;;9.52;3.80;;;21.70;99.90;;;;;;4994778;28;20030;-47
2023/10/08 11:18:47;;;;;;;8.48;4.35;;;21.80;99.90;;;;;;4995130;28;20463;-48
2023/10/08 11:21:15;;;;;;;8.65;4.25;;;21.80;99.90;;;;;;4995215;28;20097;-46
2023/10/08 11:23:53;;;;;;;9.73;5.03;;;21.80;99.90;;;;;;4994777;28;20022;-49
2023/10/08 11:26:19;;;;;;;9.25;4.40;;;21.80;99.90;;;;;;4994751;28;20044;-47
2023/10/08 11:28:48;;;;;;;11.25;4.47;;;21.70;99.90;;;;;;4995025;28;20484;-49
2023/10/08 11:31:19;;;;;;;9.85;4.68;;;21.80;99.90;;;;;;4994918;28;20122;-45
2023/10/08 11:33:54;;;;;;;8.68;4.18;;;21.90;99.90;;;;;;4994935;28;20038;-49
2023/10/08 11:36:27;;;;;;;11.48;4.70;;;22.00;99.90;;;;;;4994798;28;20105;-47
2023/10/08 11:38:56;;;;;;;8.30;4.40;;;22.10;99.90;;;;;;4994758;28;20026;-46
2023/10/08 11:41:21;;;;;;;18.42;10.82;;;22.10;99.90;;;;;;4994639;28;20023;-48
2023/10/08 11:43:53;;;;;;;11.77;6.85;;;22.10;99.90;;;;;;4993795;28;20600;-47
2023/10/08 11:46:20;;;;;;;8.50;4.65;;;22.10;99.90;;;;;;4994858;28;20386;-48
2023/10/08 11:48:46;;;;;;;9.98;4.65;;;22.10;99.90;;;;;;4995037;28;20035;-47
2023/10/08 11:51:16;;;;;;;7.60;4.07;;;22.00;99.90;;;;;;4994666;28;20027;-46
2023/10/08 11:53:44;;;;;;;11.15;4.47;;;21.90;99.90;;;;;;4994519;28;20130;-47
2023/10/08 11:56:13;;;;;;;10.93;5.00;;;21.80;99.90;;;;;;4994366;28;20034;-49
2023/10/08 11:58:44;;;;;;;8.52;4.70;;;21.80;99.90;;;;;;4994697;28;20037;-50
2023/10/08 12:01:15;;;;;;;12.52;5.30;;;21.90;99.90;;;;;;4994440;28;20394;-48
2023/10/08 12:03:45;;;;;;;12.32;4.47;;;21.80;99.90;;;;;;4994216;28;20404;-47
2023/10/08 12:06:15;;;;;;;13.77;4.43;;;21.80;99.90;;;;;;4992962;28;20120;-50
2023/10/08 12:08:46;;;;;;;9.02;4.10;;;21.80;99.90;;;;;;4994352;28;20034;-46
2023/10/08 12:11:13;;;;;;;9.63;4.55;;;21.80;99.90;;;;;;4994290;28;20022;-51
2023/10/08 12:13:44;;;;;;;7.25;3.92;;;21.70;99.90;;;;;;4993960;28;20060;-50
2023/10/08 12:16:18;;;;;;;12.63;6.72;;;21.70;99.90;;;;;;4994006;28;20367;-46
2023/10/08 12:18:48;;;;;;;13.77;6.43;;;21.60;99.90;;;;;;4994249;28;20022;-42
2023/10/08 12:21:15;;;;;;;11.40;5.30;;;21.50;99.90;;;;;;4994264;28;20029;-47
2023/10/08 12:23:51;;;;;;;10.75;5.00;;;21.50;99.90;;;;;;4993669;28;20018;-47
2023/10/08 12:26:20;;;;;;;7.75;4.88;;;21.50;99.90;;;;;;4994385;28;20041;-48
2023/10/08 12:28:48;;;;;;;11.23;4.07;;;21.50;99.90;;;;;;4994727;28;20113;-49
2023/10/08 12:31:21;;;;;;;9.50;5.15;;;21.50;99.90;;;;;;4994361;28;20023;-48
2023/10/08 12:33:47;;;;;;;11.02;5.00;;;21.50;99.90;;;;;;4994031;28;20402;-46
2023/10/08 12:36:13;;;;;;;12.60;4.55;;;21.50;99.90;;;;;;4994297;28;20038;-47
2023/10/08 12:38:43;;;;;;;13.70;5.22;;;21.50;99.90;;;;;;4994396;28;20324;-46
2023/10/08 12:41:12;;;;;;;10.85;4.85;;;21.60;99.90;;;;;;4992421;28;20057;-45
2023/10/08 12:43:42;;;;;;;14.05;4.70;;;21.50;99.90;;;;;;4994506;28;20019;-50
2023/10/08 12:46:17;;;;;;;7.97;5.18;;;21.40;99.90;;;;;;4992873;28;20113;-47
2023/10/08 12:48:44;;;;;;;11.93;5.00;;;21.40;99.90;;;;;;4993083;28;20030;-49
2023/10/08 12:51:11;;;;;;;7.30;4.20;;;21.40;99.90;;;;;;4994313;28;20105;-47
2023/10/08 12:53:37;;;;;;;10.95;4.35;;;21.40;99.90;;;;;;4993358;28;20052;-51
2023/10/08 12:56:14;;;;;;;9.00;4.45;;;21.40;99.90;;;;;;4993804;28;20057;-47
2023/10/08 12:58:41;;;;;;;10.95;4.50;;;21.40;99.90;;;;;;4991451;28;20026;-54
2023/10/08 13:01:11;;;;;;;10.02;4.32;;;21.50;99.90;;;;;;4989582;28;20030;-50
2023/10/08 13:03:47;;;;;;;9.50;4.40;;;21.50;99.90;;;;;;4992098;28;20078;-52
2023/10/08 13:06:22;;;;;;;10.77;4.68;;;21.50;99.90;;;;;;4991438;28;20022;-50
2023/10/08 13:08:50;;;;;;;14.40;4.43;;;21.60;99.90;;;;;;4993133;28;20026;-50
2023/10/08 13:11:15;;;;;;;9.52;4.93;;;21.60;99.90;;;;;;4993424;28;20034;-47
2023/10/08 13:13:41;;;;;;;11.68;5.22;;;21.60;99.90;;;;;;4993024;28;20030;-48
2023/10/08 13:16:07;;;;;;;8.70;4.03;;;21.60;99.90;;;;;;4991378;28;20398;-48
2023/10/08 13:18:33;;;;;;;11.38;5.50;;;21.60;99.90;;;;;;4993274;28;20490;-49
2023/10/08 13:21:00;;;;;;;12.35;5.03;;;21.60;99.90;;;;;;4992767;28;20026;-50
2023/10/08 13:23:26;;;;;;;11.82;4.93;;;21.60;99.90;;;;;;4992674;28;20023;-50
2023/10/08 13:25:54;;;;;;;12.35;4.63;;;21.50;99.90;;;;;;4992834;28;20034;-47
2023/10/08 13:28:22;;;;;;;12.23;5.30;;;21.50;99.90;;;;;;4994409;28;20055;-48
2023/10/08 13:30:54;;;;;;;9.32;4.15;;;21.60;99.90;;;;;;4993401;28;20038;-49
2023/10/08 13:33:22;;;;;;;10.50;4.30;;;21.60;99.90;;;;;;4993136;28;20048;-50
2023/10/08 13:35:49;;;;;;;15.35;4.97;;;21.50;99.90;;;;;;4993897;28;20110;-52
2023/10/08 13:38:16;;;;;;;6.53;3.88;;;21.60;99.90;;;;;;4994419;28;20501;-48
2023/10/08 13:41:01;;;;;;;12.30;4.60;;;21.60;99.90;;;;;;4992162;28;20081;-50
2023/10/08 13:43:33;;;;;;;10.40;4.50;;;21.70;99.90;;;;;;4992623;28;20022;-48
2023/10/08 13:46:04;;;;;;;9.90;4.07;;;21.70;99.90;;;;;;4994258;28;20113;-52
2023/10/08 13:48:32;;;;;;;15.55;5.20;;;21.70;99.90;;;;;;4993749;28;20662;-48
2023/10/08 13:50:59;;;;;;;17.90;5.88;;;21.70;99.90;;;;;;4993409;28;20422;-51
2023/10/08 13:53:29;;;;;;;10.30;4.03;;;21.70;99.90;;;;;;4993508;28;20030;-47
2023/10/08 13:56:01;;;;;;;13.43;5.00;;;21.70;99.90;;;;;;4993360;28;20065;-48
2023/10/08 13:58:31;;;;;;;11.00;4.53;;;21.70;99.90;;;;;;4993246;28;20394;-47
2023/10/08 14:01:13;;;;;;;10.75;4.63;;;21.60;99.90;;;;;;4993219;28;20030;-48
2023/10/08 14:03:41;;;;;;;14.27;4.95;;;21.60;99.90;;;;;;4992692;28;20053;-49
2023/10/08 14:06:08;;;;;;;7.45;4.38;;;21.60;99.90;;;;;;4993313;28;20022;-48
2023/10/08 14:08:33;;;;;;;12.05;5.68;;;21.60;99.90;;;;;;4992990;28;20023;-47